sensor_id;sensor_type;location;lat;lon;timestamp;temperature;humidity
74822;DHT22;63353;48.702;8.884;2023-03-23T00:01:33;11.80;99.90
74822;DHT22;63353;48.702;8.884;2023-03-23T00:04:02;11.70;99.90
74822;DHT22;63353;48.702;8.884;2023-03-23T00:06:28;11.70;99.90
74822;DHT22;63353;48.702;8.884;2023-03-23T00:09:10;11.70;99.90
74822;DHT22;63353;48.702;8.884;2023-03-23T00:11:38;11.80;99.90
74822;DHT22;63353;48.702;8.884;2023-03-23T00:14:16;11.80;99.90
74822;DHT22;63353;48.702;8.884;2023-03-23T00:16:48;11.80;99.90
74822;DHT22;63353;48.702;8.884;2023-03-23T00:19:15;11.70;99.90
74822;DHT22;63353;48.702;8.884;2023-03-23T00:21:44;11.70;99.90
74822;DHT22;63353;48.702;8.884;2023-03-23T00:24:17;11.70;99.90
74822;DHT22;63353;48.702;8.884;2023-03-23T00:26:45;11.70;99.90
74822;DHT22;63353;48.702;8.884;2023-03-23T00:29:22;11.60;99.90
74822;DHT22;63353;48.702;8.884;2023-03-23T00:31:49;11.70;99.90
74822;DHT22;63353;48.702;8.884;2023-03-23T00:34:20;11.70;99.90
74822;DHT22;63353;48.702;8.884;2023-03-23T00:36:52;11.60;99.90
74822;DHT22;63353;48.702;8.884;2023-03-23T00:39:19;11.60;99.90
74822;DHT22;63353;48.702;8.884;2023-03-23T00:41:51;11.50;99.90
74822;DHT22;63353;48.702;8.884;2023-03-23T00:44:33;11.50;99.90
74822;DHT22;63353;48.702;8.884;2023-03-23T00:47:03;11.40;99.90
74822;DHT22;63353;48.702;8.884;2023-03-23T00:49:29;11.40;99.90
74822;DHT22;63353;48.702;8.884;2023-03-23T00:51:57;11.50;99.90
74822;DHT22;63353;48.702;8.884;2023-03-23T00:54:25;11.50;99.90
74822;DHT22;63353;48.702;8.884;2023-03-23T00:56:52;11.40;99.90
74822;DHT22;63353;48.702;8.884;2023-03-23T00:59:18;11.50;99.90
74822;DHT22;63353;48.702;8.884;2023-03-23T01:01:44;11.50;99.90
74822;DHT22;63353;48.702;8.884;2023-03-23T01:04:14;11.40;99.90
74822;DHT22;63353;48.702;8.884;2023-03-23T01:06:42;11.40;99.90
74822;DHT22;63353;48.702;8.884;2023-03-23T01:09:13;11.40;99.90
74822;DHT22;63353;48.702;8.884;2023-03-23T01:11:45;11.40;99.90
74822;DHT22;63353;48.702;8.884;2023-03-23T01:14:20;11.30;99.90
74822;DHT22;63353;48.702;8.884;2023-03-23T01:16:52;11.40;99.90
74822;DHT22;63353;48.702;8.884;2023-03-23T01:19:17;11.40;99.90
74822;DHT22;63353;48.702;8.884;2023-03-23T01:21:43;11.50;99.90
74822;DHT22;63353;48.702;8.884;2023-03-23T01:24:09;11.40;99.90
74822;DHT22;63353;48.702;8.884;2023-03-23T01:26:34;11.40;99.90
74822;DHT22;63353;48.702;8.884;2023-03-23T01:29:03;11.40;99.90
74822;DHT22;63353;48.702;8.884;2023-03-23T01:31:33;11.30;99.90
74822;DHT22;63353;48.702;8.884;2023-03-23T01:34:08;11.30;99.90
74822;DHT22;63353;48.702;8.884;2023-03-23T01:36:41;11.30;99.90
74822;DHT22;63353;48.702;8.884;2023-03-23T01:39:19;11.30;99.90
74822;DHT22;63353;48.702;8.884;2023-03-23T01:41:45;11.30;99.90
74822;DHT22;63353;48.702;8.884;2023-03-23T01:46:43;11.10;99.90
74822;DHT22;63353;48.702;8.884;2023-03-23T01:49:16;11.00;99.90
74822;DHT22;63353;48.702;8.884;2023-03-23T01:51:59;10.90;99.90
74822;DHT22;63353;48.702;8.884;2023-03-23T01:54:26;10.90;99.90
74822;DHT22;63353;48.702;8.884;2023-03-23T01:57:08;10.90;99.90
74822;DHT22;63353;48.702;8.884;2023-03-23T01:59:36;10.70;99.90
74822;DHT22;63353;48.702;8.884;2023-03-23T02:02:05;10.60;99.90
74822;DHT22;63353;48.702;8.884;2023-03-23T02:04:31;10.60;99.90
74822;DHT22;63353;48.702;8.884;2023-03-23T02:06:59;10.50;99.90
74822;DHT22;63353;48.702;8.884;2023-03-23T02:09:27;10.50;99.90
74822;DHT22;63353;48.702;8.884;2023-03-23T02:11:53;10.40;99.90
74822;DHT22;63353;48.702;8.884;2023-03-23T02:14:20;10.40;99.90
74822;DHT22;63353;48.702;8.884;2023-03-23T02:22:09;10.40;99.90
74822;DHT22;63353;48.702;8.884;2023-03-23T02:24:59;10.40;99.90
74822;DHT22;63353;48.702;8.884;2023-03-23T02:38:21;10.10;99.90
74822;DHT22;63353;48.702;8.884;2023-03-23T02:40:50;10.00;99.90
74822;DHT22;63353;48.702;8.884;2023-03-23T02:43:24;9.90;99.90
74822;DHT22;63353;48.702;8.884;2023-03-23T02:45:52;9.90;99.90
74822;DHT22;63353;48.702;8.884;2023-03-23T02:48:20;9.80;99.90
74822;DHT22;63353;48.702;8.884;2023-03-23T02:50:49;9.80;99.90
74822;DHT22;63353;48.702;8.884;2023-03-23T02:53:22;9.80;99.90
74822;DHT22;63353;48.702;8.884;2023-03-23T02:55:52;10.00;99.90
74822;DHT22;63353;48.702;8.884;2023-03-23T02:58:21;9.90;99.90
74822;DHT22;63353;48.702;8.884;2023-03-23T03:00:49;10.00;99.90
74822;DHT22;63353;48.702;8.884;2023-03-23T03:03:21;10.00;99.90
74822;DHT22;63353;48.702;8.884;2023-03-23T03:06:25;10.10;99.90
74822;DHT22;63353;48.702;8.884;2023-03-23T03:09:07;10.30;99.90
74822;DHT22;63353;48.702;8.884;2023-03-23T03:11:37;10.30;99.90
74822;DHT22;63353;48.702;8.884;2023-03-23T03:14:08;10.40;99.90
74822;DHT22;63353;48.702;8.884;2023-03-23T03:16:41;10.30;99.90
74822;DHT22;63353;48.702;8.884;2023-03-23T03:21:44;10.70;99.90
74822;DHT22;63353;48.702;8.884;2023-03-23T03:24:13;10.70;99.90
74822;DHT22;63353;48.702;8.884;2023-03-23T03:26:48;10.70;99.90
74822;DHT22;63353;48.702;8.884;2023-03-23T03:29:22;10.70;99.90
74822;DHT22;63353;48.702;8.884;2023-03-23T03:31:50;10.70;99.90
74822;DHT22;63353;48.702;8.884;2023-03-23T03:34:16;10.70;99.90
74822;DHT22;63353;48.702;8.884;2023-03-23T03:36:47;10.60;99.90
74822;DHT22;63353;48.702;8.884;2023-03-23T03:39:16;10.60;99.90
74822;DHT22;63353;48.702;8.884;2023-03-23T03:41:43;10.50;99.90
74822;DHT22;63353;48.702;8.884;2023-03-23T03:44:09;10.60;99.90
74822;DHT22;63353;48.702;8.884;2023-03-23T03:46:35;10.60;99.90
74822;DHT22;63353;48.702;8.884;2023-03-23T03:49:03;10.50;99.90
74822;DHT22;63353;48.702;8.884;2023-03-23T03:51:31;10.50;99.90
74822;DHT22;63353;48.702;8.884;2023-03-23T03:53:57;10.60;99.90
74822;DHT22;63353;48.702;8.884;2023-03-23T03:56:24;10.60;99.90
74822;DHT22;63353;48.702;8.884;2023-03-23T03:58:50;10.50;99.90
74822;DHT22;63353;48.702;8.884;2023-03-23T04:01:22;10.50;99.90
74822;DHT22;63353;48.702;8.884;2023-03-23T04:03:51;10.50;99.90
74822;DHT22;63353;48.702;8.884;2023-03-23T04:06:23;10.50;99.90
74822;DHT22;63353;48.702;8.884;2023-03-23T04:08:57;10.50;99.90
74822;DHT22;63353;48.702;8.884;2023-03-23T04:11:30;10.60;99.90
74822;DHT22;63353;48.702;8.884;2023-03-23T04:13:59;10.60;99.90
74822;DHT22;63353;48.702;8.884;2023-03-23T04:16:24;10.50;99.90
74822;DHT22;63353;48.702;8.884;2023-03-23T04:18:54;10.60;99.90
74822;DHT22;63353;48.702;8.884;2023-03-23T04:21:33;10.60;99.90
74822;DHT22;63353;48.702;8.884;2023-03-23T04:23:59;10.60;99.90
74822;DHT22;63353;48.702;8.884;2023-03-23T04:26:27;10.60;99.90
74822;DHT22;63353;48.702;8.884;2023-03-23T04:28:56;10.60;99.90
74822;DHT22;63353;48.702;8.884;2023-03-23T04:31:22;10.60;99.90
74822;DHT22;63353;48.702;8.884;2023-03-23T04:33:50;10.60;99.90
74822;DHT22;63353;48.702;8.884;2023-03-23T04:36:18;10.50;99.90
74822;DHT22;63353;48.702;8.884;2023-03-23T04:38:44;10.60;99.90
74822;DHT22;63353;48.702;8.884;2023-03-23T04:41:13;10.60;99.90
74822;DHT22;63353;48.702;8.884;2023-03-23T04:43:39;10.60;99.90
74822;DHT22;63353;48.702;8.884;2023-03-23T04:46:08;10.60;99.90
74822;DHT22;63353;48.702;8.884;2023-03-23T04:48:36;10.50;99.90
74822;DHT22;63353;48.702;8.884;2023-03-23T04:51:05;10.50;99.90
74822;DHT22;63353;48.702;8.884;2023-03-23T04:53:34;10.60;99.90
74822;DHT22;63353;48.702;8.884;2023-03-23T04:55:59;10.50;99.90
74822;DHT22;63353;48.702;8.884;2023-03-23T04:58:27;10.50;99.90
74822;DHT22;63353;48.702;8.884;2023-03-23T05:00:56;10.50;99.90
74822;DHT22;63353;48.702;8.884;2023-03-23T05:03:21;10.40;99.90
74822;DHT22;63353;48.702;8.884;2023-03-23T05:05:47;10.50;99.90
74822;DHT22;63353;48.702;8.884;2023-03-23T05:08:18;10.60;99.90
74822;DHT22;63353;48.702;8.884;2023-03-23T05:10:53;10.70;99.90
74822;DHT22;63353;48.702;8.884;2023-03-23T05:13:20;10.80;99.90
74822;DHT22;63353;48.702;8.884;2023-03-23T05:15:52;10.80;99.90
74822;DHT22;63353;48.702;8.884;2023-03-23T05:18:21;10.80;99.90
74822;DHT22;63353;48.702;8.884;2023-03-23T05:20:46;11.00;99.90
74822;DHT22;63353;48.702;8.884;2023-03-23T05:23:17;11.00;99.90
74822;DHT22;63353;48.702;8.884;2023-03-23T05:25:55;11.20;99.90
74822;DHT22;63353;48.702;8.884;2023-03-23T05:28:22;11.10;99.90
74822;DHT22;63353;48.702;8.884;2023-03-23T05:30:50;11.20;99.90
74822;DHT22;63353;48.702;8.884;2023-03-23T05:33:19;11.20;99.90
74822;DHT22;63353;48.702;8.884;2023-03-23T05:35:46;11.30;99.90
74822;DHT22;63353;48.702;8.884;2023-03-23T05:38:13;11.30;99.90
74822;DHT22;63353;48.702;8.884;2023-03-23T05:40:40;11.40;99.90
74822;DHT22;63353;48.702;8.884;2023-03-23T05:43:07;11.40;99.90
74822;DHT22;63353;48.702;8.884;2023-03-23T05:45:33;11.40;99.90
74822;DHT22;63353;48.702;8.884;2023-03-23T05:47:59;11.50;99.90
74822;DHT22;63353;48.702;8.884;2023-03-23T05:50:25;11.50;99.90
74822;DHT22;63353;48.702;8.884;2023-03-23T05:53:09;11.50;99.90
74822;DHT22;63353;48.702;8.884;2023-03-23T05:55:35;11.50;99.90
74822;DHT22;63353;48.702;8.884;2023-03-23T05:58:01;11.60;99.90
74822;DHT22;63353;48.702;8.884;2023-03-23T06:00:29;11.60;99.90
74822;DHT22;63353;48.702;8.884;2023-03-23T06:03:04;11.60;99.90
74822;DHT22;63353;48.702;8.884;2023-03-23T06:05:30;11.70;99.90
74822;DHT22;63353;48.702;8.884;2023-03-23T06:07:55;11.70;99.90
74822;DHT22;63353;48.702;8.884;2023-03-23T06:10:21;11.70;99.90
74822;DHT22;63353;48.702;8.884;2023-03-23T06:12:49;11.70;99.90
74822;DHT22;63353;48.702;8.884;2023-03-23T06:15:15;11.60;99.90
74822;DHT22;63353;48.702;8.884;2023-03-23T06:17:41;11.60;99.90
74822;DHT22;63353;48.702;8.884;2023-03-23T06:20:11;11.60;99.90
74822;DHT22;63353;48.702;8.884;2023-03-23T06:22:48;11.60;99.90
74822;DHT22;63353;48.702;8.884;2023-03-23T06:25:14;11.70;99.90
74822;DHT22;63353;48.702;8.884;2023-03-23T06:27:41;11.70;99.90
74822;DHT22;63353;48.702;8.884;2023-03-23T06:30:07;11.70;99.90
74822;DHT22;63353;48.702;8.884;2023-03-23T06:32:36;11.60;99.90
74822;DHT22;63353;48.702;8.884;2023-03-23T06:35:03;11.60;99.90
74822;DHT22;63353;48.702;8.884;2023-03-23T06:37:31;11.50;99.90
74822;DHT22;63353;48.702;8.884;2023-03-23T06:40:04;11.50;99.90
74822;DHT22;63353;48.702;8.884;2023-03-23T06:42:39;11.50;99.90
74822;DHT22;63353;48.702;8.884;2023-03-23T06:45:05;11.60;99.90
74822;DHT22;63353;48.702;8.884;2023-03-23T06:47:37;11.70;99.90
74822;DHT22;63353;48.702;8.884;2023-03-23T06:50:03;11.80;99.90
74822;DHT22;63353;48.702;8.884;2023-03-23T06:52:48;12.00;99.90
74822;DHT22;63353;48.702;8.884;2023-03-23T06:55:15;12.10;99.90
74822;DHT22;63353;48.702;8.884;2023-03-23T06:57:44;12.10;99.90
74822;DHT22;63353;48.702;8.884;2023-03-23T07:00:13;12.10;99.90
74822;DHT22;63353;48.702;8.884;2023-03-23T07:02:42;12.10;99.90
74822;DHT22;63353;48.702;8.884;2023-03-23T07:05:10;12.10;99.90
74822;DHT22;63353;48.702;8.884;2023-03-23T07:07:45;12.10;99.90
74822;DHT22;63353;48.702;8.884;2023-03-23T07:10:14;12.20;99.90
74822;DHT22;63353;48.702;8.884;2023-03-23T07:12:46;12.10;99.90
74822;DHT22;63353;48.702;8.884;2023-03-23T07:15:15;12.10;99.90
74822;DHT22;63353;48.702;8.884;2023-03-23T07:17:41;12.10;99.90
74822;DHT22;63353;48.702;8.884;2023-03-23T07:20:07;12.10;99.90
74822;DHT22;63353;48.702;8.884;2023-03-23T07:22:33;12.20;99.90
74822;DHT22;63353;48.702;8.884;2023-03-23T07:25:05;12.10;99.90
74822;DHT22;63353;48.702;8.884;2023-03-23T07:27:40;12.20;99.90
74822;DHT22;63353;48.702;8.884;2023-03-23T07:30:09;12.40;99.90
74822;DHT22;63353;48.702;8.884;2023-03-23T07:32:38;12.60;99.90
74822;DHT22;63353;48.702;8.884;2023-03-23T07:35:13;12.70;99.90
74822;DHT22;63353;48.702;8.884;2023-03-23T07:37:57;12.70;99.90
74822;DHT22;63353;48.702;8.884;2023-03-23T07:40:26;12.80;99.90
74822;DHT22;63353;48.702;8.884;2023-03-23T07:42:56;12.80;99.90
74822;DHT22;63353;48.702;8.884;2023-03-23T07:45:25;12.80;99.90
74822;DHT22;63353;48.702;8.884;2023-03-23T07:47:52;12.90;99.90
74822;DHT22;63353;48.702;8.884;2023-03-23T07:50:18;13.00;99.90
74822;DHT22;63353;48.702;8.884;2023-03-23T07:52:59;13.10;99.90
74822;DHT22;63353;48.702;8.884;2023-03-23T07:55:25;13.10;99.90
74822;DHT22;63353;48.702;8.884;2023-03-23T07:57:55;13.20;99.90
74822;DHT22;63353;48.702;8.884;2023-03-23T08:00:28;13.10;99.90
74822;DHT22;63353;48.702;8.884;2023-03-23T08:02:59;13.00;99.90
74822;DHT22;63353;48.702;8.884;2023-03-23T08:05:26;13.10;99.90
74822;DHT22;63353;48.702;8.884;2023-03-23T08:07:56;13.10;99.90
74822;DHT22;63353;48.702;8.884;2023-03-23T08:10:23;13.10;99.90
74822;DHT22;63353;48.702;8.884;2023-03-23T08:12:54;13.10;99.90
74822;DHT22;63353;48.702;8.884;2023-03-23T08:15:23;13.20;99.90
74822;DHT22;63353;48.702;8.884;2023-03-23T08:17:52;13.40;99.90
74822;DHT22;63353;48.702;8.884;2023-03-23T08:20:18;13.60;99.90
74822;DHT22;63353;48.702;8.884;2023-03-23T08:22:51;13.60;99.90
74822;DHT22;63353;48.702;8.884;2023-03-23T08:25:24;13.70;99.90
74822;DHT22;63353;48.702;8.884;2023-03-23T08:27:54;13.60;99.90
74822;DHT22;63353;48.702;8.884;2023-03-23T08:30:23;13.50;99.90
74822;DHT22;63353;48.702;8.884;2023-03-23T08:32:50;13.40;99.90
74822;DHT22;63353;48.702;8.884;2023-03-23T08:35:16;13.30;99.90
74822;DHT22;63353;48.702;8.884;2023-03-23T08:37:48;13.40;99.90
74822;DHT22;63353;48.702;8.884;2023-03-23T08:40:21;13.40;99.90
74822;DHT22;63353;48.702;8.884;2023-03-23T08:42:48;13.40;99.90
74822;DHT22;63353;48.702;8.884;2023-03-23T08:45:36;13.50;99.90
74822;DHT22;63353;48.702;8.884;2023-03-23T08:48:01;13.50;99.90
74822;DHT22;63353;48.702;8.884;2023-03-23T08:50:28;13.60;99.90
74822;DHT22;63353;48.702;8.884;2023-03-23T08:52:59;13.60;99.90
74822;DHT22;63353;48.702;8.884;2023-03-23T08:55:38;13.50;99.90
74822;DHT22;63353;48.702;8.884;2023-03-23T08:58:08;13.60;99.90
74822;DHT22;63353;48.702;8.884;2023-03-23T09:00:34;13.70;99.90
74822;DHT22;63353;48.702;8.884;2023-03-23T09:03:02;13.60;99.90
74822;DHT22;63353;48.702;8.884;2023-03-23T09:05:32;13.60;99.90
74822;DHT22;63353;48.702;8.884;2023-03-23T09:07:58;13.80;99.90
74822;DHT22;63353;48.702;8.884;2023-03-23T09:10:26;13.80;99.90
74822;DHT22;63353;48.702;8.884;2023-03-23T09:12:53;13.80;99.90
74822;DHT22;63353;48.702;8.884;2023-03-23T09:15:22;13.90;99.90
74822;DHT22;63353;48.702;8.884;2023-03-23T09:17:49;13.90;99.90
74822;DHT22;63353;48.702;8.884;2023-03-23T09:20:18;13.60;99.90
74822;DHT22;63353;48.702;8.884;2023-03-23T09:22:47;13.70;99.90
74822;DHT22;63353;48.702;8.884;2023-03-23T09:25:16;13.80;99.90
74822;DHT22;63353;48.702;8.884;2023-03-23T09:27:56;13.80;99.90
74822;DHT22;63353;48.702;8.884;2023-03-23T09:30:32;13.90;99.90
74822;DHT22;63353;48.702;8.884;2023-03-23T09:33:00;13.90;99.90
74822;DHT22;63353;48.702;8.884;2023-03-23T09:35:27;13.80;99.90
74822;DHT22;63353;48.702;8.884;2023-03-23T09:37:59;13.90;99.90
74822;DHT22;63353;48.702;8.884;2023-03-23T09:46:13;13.80;99.90
74822;DHT22;63353;48.702;8.884;2023-03-23T09:51:43;14.20;99.90
74822;DHT22;63353;48.702;8.884;2023-03-23T09:54:51;14.40;99.90
74822;DHT22;63353;48.702;8.884;2023-03-23T09:57:39;14.60;99.90
74822;DHT22;63353;48.702;8.884;2023-03-23T10:03:17;15.00;99.90
74822;DHT22;63353;48.702;8.884;2023-03-23T10:05:54;15.40;99.90
74822;DHT22;63353;48.702;8.884;2023-03-23T10:08:29;15.30;99.90
74822;DHT22;63353;48.702;8.884;2023-03-23T10:16:21;14.90;99.90
74822;DHT22;63353;48.702;8.884;2023-03-23T10:19:33;15.40;99.90
74822;DHT22;63353;48.702;8.884;2023-03-23T10:22:21;15.30;99.90
74822;DHT22;63353;48.702;8.884;2023-03-23T10:24:57;15.30;99.90
74822;DHT22;63353;48.702;8.884;2023-03-23T10:27:53;15.30;99.90
74822;DHT22;63353;48.702;8.884;2023-03-23T10:30:27;15.70;99.90
74822;DHT22;63353;48.702;8.884;2023-03-23T10:32:58;16.10;99.90
74822;DHT22;63353;48.702;8.884;2023-03-23T10:36:17;15.90;99.90
74822;DHT22;63353;48.702;8.884;2023-03-23T10:39:00;15.60;99.90
74822;DHT22;63353;48.702;8.884;2023-03-23T10:41:28;16.20;99.90
74822;DHT22;63353;48.702;8.884;2023-03-23T10:43:54;16.50;99.90
74822;DHT22;63353;48.702;8.884;2023-03-23T10:46:46;16.80;99.90
74822;DHT22;63353;48.702;8.884;2023-03-23T10:49:23;16.80;99.90
74822;DHT22;63353;48.702;8.884;2023-03-23T10:52:06;16.90;99.90
74822;DHT22;63353;48.702;8.884;2023-03-23T10:54:48;16.80;99.90
74822;DHT22;63353;48.702;8.884;2023-03-23T10:57:24;16.10;99.90
74822;DHT22;63353;48.702;8.884;2023-03-23T10:59:59;16.20;99.90
74822;DHT22;63353;48.702;8.884;2023-03-23T11:02:25;16.20;99.90
74822;DHT22;63353;48.702;8.884;2023-03-23T11:04:58;15.70;99.90
74822;DHT22;63353;48.702;8.884;2023-03-23T11:07:29;15.40;99.90
74822;DHT22;63353;48.702;8.884;2023-03-23T11:09:57;15.20;99.90
74822;DHT22;63353;48.702;8.884;2023-03-23T11:12:33;15.10;99.90
74822;DHT22;63353;48.702;8.884;2023-03-23T11:15:23;15.10;99.90
74822;DHT22;63353;48.702;8.884;2023-03-23T11:17:58;15.30;99.90
74822;DHT22;63353;48.702;8.884;2023-03-23T11:20:35;15.50;99.90
74822;DHT22;63353;48.702;8.884;2023-03-23T11:29:04;15.30;99.90
74822;DHT22;63353;48.702;8.884;2023-03-23T11:31:33;15.70;99.90
74822;DHT22;63353;48.702;8.884;2023-03-23T11:34:02;16.20;99.90
74822;DHT22;63353;48.702;8.884;2023-03-23T11:36:35;16.20;99.90
74822;DHT22;63353;48.702;8.884;2023-03-23T11:39:24;15.90;99.90
74822;DHT22;63353;48.702;8.884;2023-03-23T11:41:50;15.70;99.90
74822;DHT22;63353;48.702;8.884;2023-03-23T11:44:20;15.70;99.90
74822;DHT22;63353;48.702;8.884;2023-03-23T11:49:48;15.60;99.90
74822;DHT22;63353;48.702;8.884;2023-03-23T11:52:52;15.60;99.90
74822;DHT22;63353;48.702;8.884;2023-03-23T11:55:29;15.70;99.90
74822;DHT22;63353;48.702;8.884;2023-03-23T11:58:25;15.70;99.90
74822;DHT22;63353;48.702;8.884;2023-03-23T12:04:27;15.80;99.90
74822;DHT22;63353;48.702;8.884;2023-03-23T12:28:15;15.80;99.90
74822;DHT22;63353;48.702;8.884;2023-03-23T12:34:35;16.60;99.90
74822;DHT22;63353;48.702;8.884;2023-03-23T12:46:02;17.50;99.90
74822;DHT22;63353;48.702;8.884;2023-03-23T12:48:52;17.90;99.90
74822;DHT22;63353;48.702;8.884;2023-03-23T12:51:37;17.70;99.90
74822;DHT22;63353;48.702;8.884;2023-03-23T12:57:42;17.60;99.90
74822;DHT22;63353;48.702;8.884;2023-03-23T13:00:21;17.40;99.90
74822;DHT22;63353;48.702;8.884;2023-03-23T13:03:09;17.20;99.90
74822;DHT22;63353;48.702;8.884;2023-03-23T13:05:42;17.00;99.90
74822;DHT22;63353;48.702;8.884;2023-03-23T13:08:19;16.90;99.90
74822;DHT22;63353;48.702;8.884;2023-03-23T13:11:04;16.80;99.90
74822;DHT22;63353;48.702;8.884;2023-03-23T13:13:56;17.20;99.90
74822;DHT22;63353;48.702;8.884;2023-03-23T13:31:24;17.60;99.90
74822;DHT22;63353;48.702;8.884;2023-03-23T13:33:58;17.70;99.90
74822;DHT22;63353;48.702;8.884;2023-03-23T13:36:44;17.40;99.90
74822;DHT22;63353;48.702;8.884;2023-03-23T13:39:24;17.80;99.90
74822;DHT22;63353;48.702;8.884;2023-03-23T13:50:23;17.80;99.90
74822;DHT22;63353;48.702;8.884;2023-03-23T13:52:57;17.90;99.90
74822;DHT22;63353;48.702;8.884;2023-03-23T13:58:27;17.20;99.90
74822;DHT22;63353;48.702;8.884;2023-03-23T14:01:15;17.20;99.90
74822;DHT22;63353;48.702;8.884;2023-03-23T14:03:54;17.40;99.90
74822;DHT22;63353;48.702;8.884;2023-03-23T14:06:22;17.40;99.90
74822;DHT22;63353;48.702;8.884;2023-03-23T14:08:52;17.10;99.90
74822;DHT22;63353;48.702;8.884;2023-03-23T14:11:27;17.10;99.90
74822;DHT22;63353;48.702;8.884;2023-03-23T14:14:00;17.00;99.90
74822;DHT22;63353;48.702;8.884;2023-03-23T14:16:49;16.90;99.90
74822;DHT22;63353;48.702;8.884;2023-03-23T14:19:28;16.60;99.90
74822;DHT22;63353;48.702;8.884;2023-03-23T14:21:58;16.40;99.90
74822;DHT22;63353;48.702;8.884;2023-03-23T14:24:40;16.30;99.90
74822;DHT22;63353;48.702;8.884;2023-03-23T14:27:15;16.40;99.90
74822;DHT22;63353;48.702;8.884;2023-03-23T14:29:58;16.40;99.90
74822;DHT22;63353;48.702;8.884;2023-03-23T14:32:27;16.40;99.90
74822;DHT22;63353;48.702;8.884;2023-03-23T14:34:53;16.60;99.90
74822;DHT22;63353;48.702;8.884;2023-03-23T14:37:20;16.90;99.90
74822;DHT22;63353;48.702;8.884;2023-03-23T14:39:48;17.10;99.90
74822;DHT22;63353;48.702;8.884;2023-03-23T14:42:16;17.10;99.90
74822;DHT22;63353;48.702;8.884;2023-03-23T14:44:53;16.90;99.90
74822;DHT22;63353;48.702;8.884;2023-03-23T14:49:54;16.90;99.90
74822;DHT22;63353;48.702;8.884;2023-03-23T14:52:23;16.90;99.90
74822;DHT22;63353;48.702;8.884;2023-03-23T14:54:49;16.90;99.90
74822;DHT22;63353;48.702;8.884;2023-03-23T14:57:25;16.90;99.90
74822;DHT22;63353;48.702;8.884;2023-03-23T14:59:52;16.80;99.90
74822;DHT22;63353;48.702;8.884;2023-03-23T15:02:33;17.00;99.90
74822;DHT22;63353;48.702;8.884;2023-03-23T15:05:13;17.30;99.90
74822;DHT22;63353;48.702;8.884;2023-03-23T15:07:43;17.20;99.90
74822;DHT22;63353;48.702;8.884;2023-03-23T15:10:19;17.20;99.90
74822;DHT22;63353;48.702;8.884;2023-03-23T15:12:49;16.90;99.90
74822;DHT22;63353;48.702;8.884;2023-03-23T15:15:27;16.80;99.90
74822;DHT22;63353;48.702;8.884;2023-03-23T15:17:54;16.80;99.90
74822;DHT22;63353;48.702;8.884;2023-03-23T15:20:28;17.00;99.90
74822;DHT22;63353;48.702;8.884;2023-03-23T15:22:55;16.80;99.90
74822;DHT22;63353;48.702;8.884;2023-03-23T15:25:32;16.60;99.90
74822;DHT22;63353;48.702;8.884;2023-03-23T15:28:13;16.60;99.90
74822;DHT22;63353;48.702;8.884;2023-03-23T15:30:52;16.80;99.90
74822;DHT22;63353;48.702;8.884;2023-03-23T15:33:19;16.70;99.90
74822;DHT22;63353;48.702;8.884;2023-03-23T15:35:52;16.50;99.90
74822;DHT22;63353;48.702;8.884;2023-03-23T15:38:24;16.30;99.90
74822;DHT22;63353;48.702;8.884;2023-03-23T15:40:55;16.20;99.90
74822;DHT22;63353;48.702;8.884;2023-03-23T15:43:32;16.20;99.90
74822;DHT22;63353;48.702;8.884;2023-03-23T15:51:26;16.20;99.90
74822;DHT22;63353;48.702;8.884;2023-03-23T15:53:53;16.10;99.90
74822;DHT22;63353;48.702;8.884;2023-03-23T15:56:25;16.20;99.90
74822;DHT22;63353;48.702;8.884;2023-03-23T15:58:51;16.30;99.90
74822;DHT22;63353;48.702;8.884;2023-03-23T16:01:25;16.30;99.90
74822;DHT22;63353;48.702;8.884;2023-03-23T16:04:04;16.10;99.90
74822;DHT22;63353;48.702;8.884;2023-03-23T16:06:36;16.00;99.90
74822;DHT22;63353;48.702;8.884;2023-03-23T16:09:03;15.80;99.90
74822;DHT22;63353;48.702;8.884;2023-03-23T16:11:32;15.90;99.90
74822;DHT22;63353;48.702;8.884;2023-03-23T16:13:59;15.70;99.90
74822;DHT22;63353;48.702;8.884;2023-03-23T16:16:33;15.70;99.90
74822;DHT22;63353;48.702;8.884;2023-03-23T16:18:59;15.70;99.90
74822;DHT22;63353;48.702;8.884;2023-03-23T16:21:25;15.50;99.90
74822;DHT22;63353;48.702;8.884;2023-03-23T16:23:57;15.40;99.90
74822;DHT22;63353;48.702;8.884;2023-03-23T16:26:23;15.20;99.90
74822;DHT22;63353;48.702;8.884;2023-03-23T16:28:51;15.10;99.90
74822;DHT22;63353;48.702;8.884;2023-03-23T16:31:17;15.10;99.90
74822;DHT22;63353;48.702;8.884;2023-03-23T16:33:43;15.10;99.90
74822;DHT22;63353;48.702;8.884;2023-03-23T16:36:12;14.90;99.90
74822;DHT22;63353;48.702;8.884;2023-03-23T16:38:39;14.70;99.90
74822;DHT22;63353;48.702;8.884;2023-03-23T16:41:05;14.70;99.90
74822;DHT22;63353;48.702;8.884;2023-03-23T16:43:31;14.70;99.90
74822;DHT22;63353;48.702;8.884;2023-03-23T16:45:57;14.70;99.90
74822;DHT22;63353;48.702;8.884;2023-03-23T16:48:23;14.70;99.90
74822;DHT22;63353;48.702;8.884;2023-03-23T16:50:52;14.70;99.90
74822;DHT22;63353;48.702;8.884;2023-03-23T16:53:24;14.80;99.90
74822;DHT22;63353;48.702;8.884;2023-03-23T16:55:51;14.70;99.90
74822;DHT22;63353;48.702;8.884;2023-03-23T16:58:24;14.50;99.90
74822;DHT22;63353;48.702;8.884;2023-03-23T17:00:51;14.50;99.90
74822;DHT22;63353;48.702;8.884;2023-03-23T17:03:18;14.50;99.90
74822;DHT22;63353;48.702;8.884;2023-03-23T17:05:45;14.60;99.90
74822;DHT22;63353;48.702;8.884;2023-03-23T17:08:11;14.60;99.90
74822;DHT22;63353;48.702;8.884;2023-03-23T17:10:47;14.50;99.90
74822;DHT22;63353;48.702;8.884;2023-03-23T17:13:22;14.50;99.90
74822;DHT22;63353;48.702;8.884;2023-03-23T17:15:51;14.40;99.90
74822;DHT22;63353;48.702;8.884;2023-03-23T17:18:17;14.30;99.90
74822;DHT22;63353;48.702;8.884;2023-03-23T17:20:43;14.30;99.90
74822;DHT22;63353;48.702;8.884;2023-03-23T17:23:09;14.20;99.90
74822;DHT22;63353;48.702;8.884;2023-03-23T17:25:35;14.20;99.90
74822;DHT22;63353;48.702;8.884;2023-03-23T17:28:00;14.10;99.90
74822;DHT22;63353;48.702;8.884;2023-03-23T17:30:26;14.10;99.90
74822;DHT22;63353;48.702;8.884;2023-03-23T17:32:52;14.00;99.90
74822;DHT22;63353;48.702;8.884;2023-03-23T17:35:18;13.90;99.90
74822;DHT22;63353;48.702;8.884;2023-03-23T17:37:44;14.00;99.90
74822;DHT22;63353;48.702;8.884;2023-03-23T17:40:10;13.80;99.90
74822;DHT22;63353;48.702;8.884;2023-03-23T17:42:37;13.80;99.90
74822;DHT22;63353;48.702;8.884;2023-03-23T17:45:04;13.70;99.90
74822;DHT22;63353;48.702;8.884;2023-03-23T17:47:34;13.60;99.90
74822;DHT22;63353;48.702;8.884;2023-03-23T17:50:06;13.60;99.90
74822;DHT22;63353;48.702;8.884;2023-03-23T17:52:35;13.60;99.90
74822;DHT22;63353;48.702;8.884;2023-03-23T17:55:01;13.50;99.90
74822;DHT22;63353;48.702;8.884;2023-03-23T17:57:27;13.40;99.90
74822;DHT22;63353;48.702;8.884;2023-03-23T17:59:58;13.50;99.90